createdAt,value
2023-02-27T00:02:21.514Z,2.00
2023-02-27T00:04:54.984Z,2.00
2023-02-27T00:07:28.684Z,2.00
2023-02-27T00:12:38.825Z,2.00
2023-02-27T00:15:20.316Z,2.10
2023-02-27T00:17:52.428Z,2.00
2023-02-27T00:20:25.783Z,2.00
2023-02-27T00:22:58.356Z,2.00
2023-02-27T00:25:31.233Z,2.00
2023-02-27T00:28:04.522Z,2.00
2023-02-27T00:30:37.344Z,1.90
2023-02-27T00:33:09.513Z,2.00
2023-02-27T00:35:42.573Z,4.80
2023-02-27T00:38:14.594Z,2.00
2023-02-27T00:40:47.279Z,2.00
2023-02-27T00:43:20.012Z,1.90
2023-02-27T00:48:24.551Z,2.00
2023-02-27T00:50:57.251Z,2.00
2023-02-27T00:53:30.070Z,2.00
2023-02-27T00:58:34.418Z,2.00
2023-02-27T01:01:07.158Z,2.00
2023-02-27T01:06:12.281Z,2.00
2023-02-27T01:11:19.769Z,2.00
2023-02-27T01:13:52.030Z,1.90
2023-02-27T01:16:25.223Z,1.90
2023-02-27T01:18:57.137Z,1.80
2023-02-27T01:21:29.982Z,1.80
2023-02-27T01:24:02.295Z,1.80
2023-02-27T01:26:34.655Z,1.80
2023-02-27T01:29:07.030Z,1.80
2023-02-27T01:31:39.377Z,1.80
2023-02-27T01:36:46.242Z,1.80
2023-02-27T01:39:21.100Z,1.60
2023-02-27T01:41:54.272Z,1.60
2023-02-27T01:44:29.547Z,1.70
2023-02-27T01:47:01.408Z,1.70
2023-02-27T01:49:35.467Z,1.70
2023-02-27T01:52:11.065Z,1.80
2023-02-27T01:54:43.893Z,1.70
2023-02-27T01:57:15.781Z,1.70
2023-02-27T01:59:48.810Z,1.70
2023-02-27T02:02:30.979Z,1.70
2023-02-27T02:05:05.368Z,1.60
2023-02-27T02:07:40.185Z,1.70
2023-02-27T02:10:14.435Z,1.60
2023-02-27T02:12:47.562Z,1.60
2023-02-27T02:15:28.722Z,1.40
2023-02-27T02:18:27.830Z,1.50
2023-02-27T02:21:33.555Z,1.50
2023-02-27T02:24:21.195Z,1.50
2023-02-27T02:27:37.262Z,1.50
2023-02-27T02:30:45.482Z,1.50
2023-02-27T02:33:57.746Z,1.60
2023-02-27T02:36:57.408Z,1.50
2023-02-27T02:40:14.529Z,1.50
2023-02-27T02:43:06.918Z,1.50
2023-02-27T02:46:08.244Z,1.50
2023-02-27T02:49:00.255Z,1.50
2023-02-27T02:51:48.880Z,1.50
2023-02-27T02:54:57.568Z,1.60
2023-02-27T02:57:58.301Z,1.50
2023-02-27T03:00:42.781Z,1.40
2023-02-27T03:03:25.575Z,1.40
2023-02-27T03:06:26.747Z,1.40
2023-02-27T03:09:08.496Z,1.40
2023-02-27T03:11:44.589Z,1.40
2023-02-27T03:14:33.885Z,1.40
2023-02-27T03:17:11.176Z,1.40
2023-02-27T03:20:04.052Z,1.40
2023-02-27T03:22:42.249Z,1.40
2023-02-27T03:25:15.363Z,1.40
2023-02-27T03:28:08.415Z,1.40
2023-02-27T03:31:10.187Z,1.40
2023-02-27T03:33:56.448Z,1.40
2023-02-27T03:36:46.090Z,1.50
2023-02-27T03:39:59.677Z,1.50
2023-02-27T03:42:49.789Z,1.50
2023-02-27T03:45:53.879Z,1.50
2023-02-27T03:48:27.401Z,1.50
2023-02-27T03:51:00.561Z,1.50
2023-02-27T03:53:39.382Z,1.50
2023-02-27T03:56:14.486Z,1.50
2023-02-27T03:58:47.608Z,1.50
2023-02-27T04:01:20.045Z,1.50
2023-02-27T04:03:59.573Z,1.40
2023-02-27T04:07:24.230Z,1.40
2023-02-27T04:10:05.430Z,1.40
2023-02-27T04:13:15.925Z,1.40
2023-02-27T04:16:17.217Z,1.30
2023-02-27T04:19:39.023Z,1.30
2023-02-27T04:22:29.374Z,1.20
2023-02-27T04:25:26.671Z,1.30
2023-02-27T04:28:25.544Z,1.30
2023-02-27T04:31:08.849Z,1.30
2023-02-27T04:33:54.797Z,1.30
2023-02-27T04:36:48.361Z,1.30
2023-02-27T04:39:35.932Z,1.30
2023-02-27T04:42:24.415Z,1.20
2023-02-27T04:45:01.370Z,2.10
2023-02-27T04:47:58.286Z,1.70
2023-02-27T04:50:40.184Z,1.40
2023-02-27T04:53:36.579Z,1.30
2023-02-27T04:56:14.482Z,1.40
2023-02-27T04:59:02.550Z,1.30
2023-02-27T05:02:05.431Z,1.30
2023-02-27T05:04:40.568Z,1.30
2023-02-27T05:07:20.796Z,1.30
2023-02-27T05:09:57.741Z,1.30
2023-02-27T05:12:48.429Z,1.30
2023-02-27T05:16:22.442Z,1.30
2023-02-27T05:18:55.768Z,1.40
2023-02-27T05:21:59.796Z,1.30
2023-02-27T05:24:50.753Z,1.30
2023-02-27T05:27:44.464Z,1.30
2023-02-27T05:30:35.557Z,1.30
2023-02-27T05:33:30.931Z,1.30
2023-02-27T05:36:08.030Z,1.20
2023-02-27T05:39:09.201Z,1.10
2023-02-27T05:41:47.903Z,1.20
2023-02-27T05:44:34.828Z,1.20
2023-02-27T05:47:12.909Z,1.20
2023-02-27T05:49:53.679Z,1.10
2023-02-27T05:52:27.109Z,1.20
2023-02-27T05:55:22.754Z,1.30
2023-02-27T05:58:06.792Z,1.20
2023-02-27T06:00:44.088Z,1.10
2023-02-27T06:03:16.438Z,1.10
2023-02-27T06:05:53.505Z,1.20
2023-02-27T06:08:27.381Z,1.20
2023-02-27T06:13:31.823Z,1.20
2023-02-27T06:16:04.555Z,1.20
2023-02-27T06:18:37.163Z,1.30
2023-02-27T06:21:09.596Z,1.40
2023-02-27T06:23:41.505Z,1.50
2023-02-27T06:26:14.577Z,1.50
2023-02-27T06:28:46.528Z,1.50
2023-02-27T06:31:18.811Z,1.50
2023-02-27T06:33:50.733Z,1.50
2023-02-27T06:36:23.326Z,1.50
2023-02-27T06:38:55.636Z,1.50
2023-02-27T06:41:29.329Z,1.40
2023-02-27T06:44:01.274Z,1.40
2023-02-27T06:46:33.829Z,1.50
2023-02-27T06:49:05.768Z,1.50
2023-02-27T06:51:38.165Z,1.50
2023-02-27T06:54:10.069Z,1.50
2023-02-27T06:56:42.482Z,1.50
2023-02-27T06:59:14.518Z,1.50
2023-02-27T07:07:33.978Z,1.60
2023-02-27T07:09:46.108Z,3.30
2023-02-27T07:19:56.083Z,1.70
2023-02-27T07:25:01.064Z,1.60
2023-02-27T07:27:33.724Z,1.60
2023-02-27T07:32:39.153Z,1.60
2023-02-27T07:35:12.023Z,1.70
2023-02-27T07:40:17.358Z,1.80
2023-02-27T07:42:52.698Z,1.60
2023-02-27T07:45:25.022Z,1.90
2023-02-27T07:47:57.620Z,1.90
2023-02-27T07:53:02.598Z,2.00
2023-02-27T07:55:34.582Z,2.00
2023-02-27T07:58:07.549Z,2.20
2023-02-27T08:00:39.564Z,2.30
2023-02-27T08:03:12.379Z,2.20
2023-02-27T08:05:44.348Z,2.40
2023-02-27T08:08:16.960Z,2.50
2023-02-27T08:10:50.127Z,2.50
2023-02-27T08:13:35.954Z,2.60
2023-02-27T08:16:15.350Z,1.80
2023-02-27T08:18:48.142Z,2.60
2023-02-27T08:21:20.092Z,2.90
2023-02-27T08:26:25.328Z,3.00
2023-02-27T08:28:58.062Z,3.30
2023-02-27T08:36:43.068Z,3.60
2023-02-27T08:39:15.805Z,3.60
2023-02-27T08:41:55.262Z,3.60
2023-02-27T08:44:27.838Z,3.50
2023-02-27T08:46:59.786Z,3.70
2023-02-27T08:49:32.439Z,3.60
2023-02-27T08:52:05.554Z,3.80
2023-02-27T08:57:12.420Z,4.10
2023-02-27T08:59:45.095Z,4.20
2023-02-27T09:04:51.577Z,4.00
2023-02-27T09:07:23.522Z,4.20
2023-02-27T09:09:55.766Z,4.10
2023-02-27T09:15:00.880Z,4.80
2023-02-27T09:17:32.920Z,4.60
2023-02-27T09:20:09.535Z,5.00
2023-02-27T09:22:41.903Z,4.70
2023-02-27T09:27:47.052Z,4.50
2023-02-27T09:30:19.751Z,4.70
2023-02-27T09:35:25.622Z,4.40
2023-02-27T09:40:38.177Z,4.40
2023-02-27T09:43:35.216Z,4.30
2023-02-27T09:46:11.353Z,4.30
2023-02-27T09:48:54.140Z,4.20
2023-02-27T09:51:28.104Z,4.30
2023-02-27T09:54:02.258Z,4.30
2023-02-27T09:56:42.772Z,4.30
2023-02-27T09:59:44.088Z,4.50
2023-02-27T10:02:55.675Z,4.50
2023-02-27T10:08:27.978Z,4.20
2023-02-27T10:11:07.811Z,4.40
2023-02-27T10:14:10.261Z,4.40
2023-02-27T10:16:43.368Z,4.80
2023-02-27T10:19:23.015Z,5.10
2023-02-27T10:21:58.410Z,5.70
2023-02-27T10:24:41.278Z,5.90
2023-02-27T10:27:19.579Z,6.60
2023-02-27T10:30:01.166Z,6.80
2023-02-27T10:32:36.347Z,7.40
2023-02-27T10:38:06.441Z,7.60
2023-02-27T10:40:41.855Z,7.30
2023-02-27T10:43:19.401Z,6.70
2023-02-27T10:48:25.592Z,5.70
2023-02-27T10:51:23.136Z,5.90
2023-02-27T10:54:26.868Z,5.90
2023-02-27T10:57:02.510Z,5.80
2023-02-27T10:59:40.780Z,5.80
2023-02-27T11:02:15.862Z,5.80
2023-02-27T11:04:54.294Z,5.60
2023-02-27T11:07:39.471Z,5.70
2023-02-27T11:10:20.348Z,6.20
2023-02-27T11:13:02.960Z,6.20
2023-02-27T11:15:38.606Z,6.00
2023-02-27T11:18:30.998Z,6.00
2023-02-27T11:21:29.117Z,5.80
2023-02-27T11:24:07.702Z,5.50
2023-02-27T11:26:57.621Z,5.70
2023-02-27T11:29:29.951Z,5.80
2023-02-27T11:32:15.164Z,5.80
2023-02-27T11:34:50.289Z,5.70
2023-02-27T11:37:34.524Z,5.90
2023-02-27T11:40:09.588Z,6.00
2023-02-27T11:43:16.698Z,6.10
2023-02-27T11:46:05.117Z,6.00
2023-02-27T11:49:03.562Z,5.90
2023-02-27T11:52:04.152Z,5.80
2023-02-27T11:54:43.995Z,6.10
2023-02-27T11:57:38.542Z,5.80
2023-02-27T12:00:27.632Z,5.60
2023-02-27T12:03:07.042Z,5.60
2023-02-27T12:05:56.652Z,5.90
2023-02-27T12:08:46.153Z,6.00
2023-02-27T12:11:34.789Z,6.00
2023-02-27T12:14:15.432Z,6.00
2023-02-27T12:16:59.726Z,6.10
2023-02-27T12:19:43.974Z,5.70
2023-02-27T12:22:33.015Z,5.70
2023-02-27T12:25:23.429Z,5.70
2023-02-27T12:28:31.003Z,5.80
2023-02-27T12:31:35.996Z,6.00
2023-02-27T12:34:31.059Z,6.30
2023-02-27T12:37:13.530Z,6.30
2023-02-27T12:39:48.013Z,6.20
2023-02-27T12:42:57.269Z,6.20
2023-02-27T12:45:50.593Z,6.10
2023-02-27T12:48:45.944Z,6.20
2023-02-27T12:51:47.630Z,6.30
2023-02-27T12:55:02.184Z,6.20
2023-02-27T12:58:31.687Z,7.10
2023-02-27T13:01:14.175Z,6.40
2023-02-27T13:03:55.294Z,6.10
2023-02-27T13:06:37.319Z,6.00
2023-02-27T13:09:28.198Z,6.00
2023-02-27T13:12:39.505Z,6.10
2023-02-27T13:15:25.900Z,6.00
2023-02-27T13:18:40.965Z,5.60
2023-02-27T13:21:24.986Z,5.70
2023-02-27T13:24:24.332Z,5.60
2023-02-27T13:27:25.365Z,5.70
2023-02-27T13:30:30.499Z,5.70
2023-02-27T13:33:30.681Z,5.60
2023-02-27T13:36:24.555Z,5.60
2023-02-27T13:38:57.701Z,5.60
2023-02-27T13:41:35.546Z,5.60
2023-02-27T13:44:20.850Z,5.70
2023-02-27T13:49:30.183Z,5.50
2023-02-27T13:52:02.742Z,5.30
2023-02-27T13:54:41.376Z,5.20
2023-02-27T13:57:21.301Z,5.10
2023-02-27T14:00:19.873Z,5.20
2023-02-27T14:03:26.024Z,5.20
2023-02-27T14:06:03.764Z,5.30
2023-02-27T14:08:50.461Z,5.50
2023-02-27T14:11:28.936Z,5.50
2023-02-27T14:14:05.131Z,5.60
2023-02-27T14:16:40.106Z,5.60
2023-02-27T14:19:15.325Z,5.60
2023-02-27T14:22:01.455Z,5.40
2023-02-27T14:24:49.763Z,5.20
2023-02-27T14:27:46.968Z,5.10
2023-02-27T14:30:36.885Z,5.20
2023-02-27T14:33:37.755Z,5.10
2023-02-27T14:36:28.997Z,5.20
2023-02-27T14:39:02.302Z,5.00
2023-02-27T14:42:26.224Z,4.90
2023-02-27T14:44:58.916Z,4.80
2023-02-27T14:47:37.601Z,4.90
2023-02-27T14:50:37.653Z,4.90
2023-02-27T14:53:25.488Z,4.90
2023-02-27T14:55:59.852Z,4.90
2023-02-27T14:58:31.876Z,4.80
2023-02-27T15:01:09.525Z,4.80
2023-02-27T15:03:52.760Z,4.80
2023-02-27T15:06:35.426Z,4.90
2023-02-27T15:09:08.156Z,4.90
2023-02-27T15:11:43.150Z,5.00
2023-02-27T15:14:24.212Z,5.00
2023-02-27T15:16:58.367Z,4.90
2023-02-27T15:19:31.314Z,5.00
2023-02-27T15:22:21.350Z,5.10
2023-02-27T15:24:59.625Z,5.10
2023-02-27T15:27:33.743Z,5.00
2023-02-27T15:30:07.566Z,4.70
2023-02-27T15:32:43.569Z,4.90
2023-02-27T15:35:28.448Z,4.80
2023-02-27T15:38:02.820Z,4.80
2023-02-27T15:40:36.232Z,4.70
2023-02-27T15:43:09.970Z,4.70
2023-02-27T15:45:42.953Z,4.60
2023-02-27T15:48:16.921Z,4.70
2023-02-27T15:50:57.012Z,4.60
2023-02-27T15:53:33.976Z,4.50
2023-02-27T15:56:12.078Z,4.60
2023-02-27T15:58:54.445Z,3.10
2023-02-27T16:01:32.625Z,4.60
2023-02-27T16:04:27.212Z,4.50
2023-02-27T16:07:10.934Z,4.40
2023-02-27T16:09:44.069Z,4.50
2023-02-27T16:12:33.435Z,4.40
2023-02-27T16:15:27.051Z,4.50
2023-02-27T16:18:08.227Z,4.50
2023-02-27T16:20:54.693Z,4.50
2023-02-27T16:23:32.284Z,4.30
2023-02-27T16:26:38.333Z,4.30
2023-02-27T16:29:21.260Z,4.20
2023-02-27T16:31:58.322Z,4.30
2023-02-27T16:34:45.201Z,4.20
2023-02-27T16:37:27.990Z,4.20
2023-02-27T16:39:59.897Z,4.10
2023-02-27T16:42:32.598Z,4.10
2023-02-27T16:45:05.174Z,4.10
2023-02-27T16:47:37.849Z,4.00
2023-02-27T16:50:22.490Z,4.00
2023-02-27T16:52:55.576Z,4.00
2023-02-27T16:55:27.939Z,4.00
2023-02-27T16:58:00.517Z,4.00
2023-02-27T17:00:34.132Z,3.90
2023-02-27T17:05:39.906Z,3.90
2023-02-27T17:08:13.146Z,3.90
2023-02-27T17:10:45.079Z,3.90
2023-02-27T17:13:17.821Z,3.90
2023-02-27T17:15:49.735Z,3.90
2023-02-27T17:18:23.005Z,3.90
2023-02-27T17:20:57.239Z,3.70
2023-02-27T17:23:29.829Z,3.90
2023-02-27T17:26:01.812Z,3.90
2023-02-27T17:28:34.449Z,3.80
2023-02-27T17:31:15.570Z,3.80
2023-02-27T17:33:47.453Z,3.60
2023-02-27T17:36:21.583Z,3.60
2023-02-27T17:39:02.804Z,3.50
2023-02-27T17:41:35.442Z,5.20
2023-02-27T17:44:07.396Z,4.40
2023-02-27T17:46:40.981Z,4.00
2023-02-27T17:49:12.858Z,3.80
2023-02-27T17:54:17.796Z,3.60
2023-02-27T17:56:50.524Z,3.50
2023-02-27T17:59:22.417Z,3.50
2023-02-27T18:01:55.757Z,3.50
2023-02-27T18:04:27.854Z,3.50
2023-02-27T18:07:00.392Z,3.50
2023-02-27T18:12:05.540Z,3.50
2023-02-27T18:14:37.569Z,3.50
2023-02-27T18:17:12.865Z,3.60
2023-02-27T18:19:44.845Z,3.50
2023-02-27T18:22:17.728Z,3.40
2023-02-27T18:24:53.969Z,3.40
2023-02-27T18:27:28.314Z,3.40
2023-02-27T18:30:00.490Z,3.50
2023-02-27T18:32:33.032Z,3.40
2023-02-27T18:37:38.255Z,3.40
2023-02-27T18:40:12.529Z,3.20
2023-02-27T18:45:21.086Z,3.00
2023-02-27T18:47:54.455Z,3.00
2023-02-27T18:50:26.467Z,3.00
2023-02-27T18:53:00.568Z,3.00
2023-02-27T18:55:32.496Z,2.90
2023-02-27T18:58:06.168Z,2.80
2023-02-27T19:00:38.209Z,2.90
2023-02-27T19:03:10.249Z,2.80
2023-02-27T19:05:42.324Z,2.80
2023-02-27T19:08:14.261Z,2.70
2023-02-27T19:10:46.999Z,2.60
2023-02-27T19:13:18.897Z,2.60
2023-02-27T19:15:51.605Z,2.60
2023-02-27T19:23:29.484Z,3.00
2023-02-27T19:26:02.452Z,2.90
2023-02-27T19:28:34.607Z,2.90
2023-02-27T19:31:14.179Z,2.80
2023-02-27T19:33:46.111Z,2.80
2023-02-27T19:36:22.715Z,2.80
2023-02-27T19:38:56.719Z,2.80
2023-02-27T19:41:31.329Z,2.80
2023-02-27T19:49:13.600Z,2.70
2023-02-27T19:51:45.513Z,2.70
2023-02-27T19:54:18.287Z,2.70
2023-02-27T19:59:24.958Z,2.80
2023-02-27T20:01:56.929Z,2.80
2023-02-27T20:12:07.513Z,2.80
2023-02-27T20:14:40.472Z,2.90
2023-02-27T20:17:12.673Z,2.90
2023-02-27T20:22:17.559Z,2.80
2023-02-27T20:24:49.912Z,2.80
2023-02-27T20:27:21.896Z,2.80
2023-02-27T20:29:58.243Z,2.70
2023-02-27T20:32:31.001Z,2.70
2023-02-27T20:35:03.953Z,2.70
2023-02-27T20:37:35.870Z,2.70
2023-02-27T20:42:41.896Z,2.70
2023-02-27T20:45:14.480Z,2.70
2023-02-27T20:47:51.739Z,2.70
2023-02-27T20:52:56.774Z,2.70
2023-02-27T20:58:01.778Z,2.60
2023-02-27T21:03:06.646Z,2.50
2023-02-27T21:05:46.490Z,2.50
2023-02-27T21:08:18.944Z,2.60
2023-02-27T21:10:51.622Z,2.60
2023-02-27T21:13:23.907Z,2.60
2023-02-27T21:16:00.530Z,2.50
2023-02-27T21:18:32.557Z,2.40
2023-02-27T21:21:10.749Z,2.30
2023-02-27T21:23:44.211Z,2.30
2023-02-27T21:26:26.984Z,2.30
2023-02-27T21:29:04.237Z,2.20
2023-02-27T21:31:37.859Z,2.10
2023-02-27T21:34:15.550Z,2.10
2023-02-27T21:36:50.512Z,2.00
2023-02-27T21:39:26.943Z,1.90
2023-02-27T21:42:02.229Z,1.90
2023-02-27T21:44:34.892Z,2.00
2023-02-27T21:47:10.014Z,1.90
2023-02-27T21:49:42.710Z,1.80
2023-02-27T21:54:47.582Z,1.90
2023-02-27T21:57:21.480Z,2.00
2023-02-27T21:59:54.031Z,2.00
2023-02-27T22:04:59.369Z,2.00
2023-02-27T22:07:31.412Z,1.90
2023-02-27T22:10:04.252Z,1.90
2023-02-27T22:12:36.180Z,1.90
2023-02-27T22:15:09.786Z,1.90
2023-02-27T22:17:41.893Z,1.80
2023-02-27T22:20:14.535Z,1.90
2023-02-27T22:22:47.267Z,1.90
2023-02-27T22:25:19.870Z,1.90
2023-02-27T22:27:51.822Z,1.80
2023-02-27T22:30:24.430Z,1.80
2023-02-27T22:35:29.662Z,1.70
2023-02-27T22:38:01.643Z,1.80
2023-02-27T22:40:36.443Z,1.90
2023-02-27T22:45:47.848Z,2.00
2023-02-27T22:48:19.715Z,1.90
2023-02-27T22:51:14.747Z,1.90
2023-02-27T22:53:47.270Z,1.90
2023-02-27T22:56:19.327Z,1.90
2023-02-27T22:58:52.620Z,1.90
2023-02-27T23:01:31.041Z,2.00
2023-02-27T23:04:07.702Z,2.00
2023-02-27T23:06:40.842Z,2.00
2023-02-27T23:09:19.503Z,2.00
2023-02-27T23:11:51.946Z,1.90
2023-02-27T23:14:24.590Z,1.90
2023-02-27T23:16:56.595Z,1.90
2023-02-27T23:19:29.205Z,1.80
2023-02-27T23:22:01.118Z,1.80
2023-02-27T23:24:33.682Z,1.70
2023-02-27T23:27:19.605Z,1.80
2023-02-27T23:29:58.170Z,1.70
2023-02-27T23:32:30.096Z,1.70
2023-02-27T23:35:02.899Z,1.60
2023-02-27T23:40:08.532Z,1.40
2023-02-27T23:48:00.965Z,1.60
2023-02-27T23:50:41.654Z,1.60
